createdAt,value
2023-01-23T00:01:32.048Z,0.54
2023-01-23T00:03:59.282Z,0.53
2023-01-23T00:06:27.076Z,0.52
2023-01-23T00:08:56.162Z,0.53
2023-01-23T00:11:28.395Z,0.51
2023-01-23T00:13:57.805Z,0.51
2023-01-23T00:16:29.122Z,0.50
2023-01-23T00:18:56.663Z,0.50
2023-01-23T00:21:27.914Z,0.50
2023-01-23T00:23:58.035Z,0.48
2023-01-23T00:26:29.345Z,0.48
2023-01-23T00:28:56.985Z,0.48
2023-01-23T00:31:32.036Z,0.46
2023-01-23T00:34:06.245Z,0.47
2023-01-23T00:36:42.507Z,0.46
2023-01-23T00:39:16.651Z,0.45
2023-01-23T00:41:46.470Z,0.44
2023-01-23T00:44:14.180Z,0.44
2023-01-23T00:46:41.335Z,0.43
2023-01-23T00:49:09.141Z,0.43
2023-01-23T00:51:36.175Z,0.42
2023-01-23T00:54:03.559Z,0.42
2023-01-23T00:56:31.224Z,0.42
2023-01-23T00:58:58.218Z,0.41
2023-01-23T01:01:25.943Z,0.40
2023-01-23T01:03:53.627Z,0.40
2023-01-23T01:06:20.894Z,0.38
2023-01-23T01:08:48.511Z,0.37
2023-01-23T01:11:17.133Z,0.37
2023-01-23T01:13:45.060Z,0.36
2023-01-23T01:16:12.138Z,0.34
2023-01-23T01:18:39.447Z,0.33
2023-01-23T01:21:12.260Z,0.31
2023-01-23T01:23:40.239Z,0.29
2023-01-23T01:26:08.092Z,0.26
2023-01-23T01:28:37.945Z,0.23
2023-01-23T01:31:09.479Z,0.21
2023-01-23T01:33:39.395Z,0.20
2023-01-23T01:36:17.463Z,0.16
2023-01-23T01:38:47.225Z,0.13
2023-01-23T01:41:15.497Z,0.11
2023-01-23T01:43:43.017Z,0.08
2023-01-23T01:46:21.735Z,0.04
2023-01-23T01:49:02.326Z,0.04
2023-01-23T01:51:40.587Z,0.01
2023-01-23T01:54:41.297Z,0.01
2023-01-23T01:57:33.457Z,-0.01
2023-01-23T02:00:18.741Z,-0.01
2023-01-23T02:02:54.750Z,-0.01
2023-01-23T02:05:36.227Z,-0.02
2023-01-23T02:08:58.450Z,-0.02
2023-01-23T02:11:25.447Z,-0.02
2023-01-23T02:13:55.225Z,-0.02
2023-01-23T02:16:29.472Z,-0.02
2023-01-23T02:19:02.728Z,-0.01
2023-01-23T02:21:29.951Z,-0.01
2023-01-23T02:24:24.703Z,-0.01
2023-01-23T02:26:52.852Z,0.00
2023-01-23T02:29:20.451Z,0.01
2023-01-23T02:31:53.270Z,0.02
2023-01-23T02:34:22.706Z,0.04
2023-01-23T02:36:50.533Z,0.04
2023-01-23T02:39:20.014Z,0.05
2023-01-23T02:41:52.931Z,0.06
2023-01-23T02:44:29.371Z,0.08
2023-01-23T02:47:07.749Z,0.08
2023-01-23T02:49:34.700Z,0.10
2023-01-23T02:52:05.721Z,0.09
2023-01-23T02:54:33.248Z,0.11
2023-01-23T02:57:01.700Z,0.12
2023-01-23T02:59:48.533Z,0.13
2023-01-23T03:02:15.727Z,0.14
2023-01-23T03:04:42.668Z,0.17
2023-01-23T03:07:09.579Z,0.17
2023-01-23T03:09:37.923Z,0.19
2023-01-23T03:12:04.973Z,0.21
2023-01-23T03:14:32.285Z,0.22
2023-01-23T03:16:59.413Z,0.23
2023-01-23T03:19:31.225Z,0.24
2023-01-23T03:21:59.087Z,0.25
2023-01-23T03:24:26.010Z,0.26
2023-01-23T03:26:52.957Z,0.28
2023-01-23T03:29:43.952Z,0.29
2023-01-23T03:32:15.124Z,0.29
2023-01-23T03:34:43.256Z,0.28
2023-01-23T03:37:12.792Z,0.29
2023-01-23T03:40:01.399Z,0.29
2023-01-23T03:42:28.524Z,0.31
2023-01-23T03:44:57.964Z,0.31
2023-01-23T03:47:28.038Z,0.32
2023-01-23T03:49:55.897Z,0.32
2023-01-23T03:52:23.290Z,0.33
2023-01-23T03:54:50.529Z,0.33
2023-01-23T03:57:18.107Z,0.33
2023-01-23T03:59:47.955Z,0.33
2023-01-23T04:02:16.629Z,0.35
2023-01-23T04:04:43.905Z,0.35
2023-01-23T04:07:10.981Z,0.35
2023-01-23T04:09:39.770Z,0.36
2023-01-23T04:12:07.327Z,0.36
2023-01-23T04:14:38.349Z,0.35
2023-01-23T04:17:07.076Z,0.35
2023-01-23T04:19:35.639Z,0.35
2023-01-23T04:22:04.831Z,0.35
2023-01-23T04:24:38.526Z,0.36
2023-01-23T04:27:05.450Z,0.36
2023-01-23T04:29:34.014Z,0.36
2023-01-23T04:32:02.317Z,0.36
2023-01-23T04:34:31.198Z,0.37
2023-01-23T04:36:58.299Z,0.38
2023-01-23T04:39:25.234Z,0.37
2023-01-23T04:41:52.243Z,0.38
2023-01-23T04:44:48.412Z,0.37
2023-01-23T04:47:33.626Z,0.39
2023-01-23T04:50:03.651Z,0.39
2023-01-23T04:52:33.558Z,0.38
2023-01-23T04:55:00.468Z,0.37
2023-01-23T04:57:27.740Z,0.37
2023-01-23T05:00:01.420Z,0.37
2023-01-23T05:02:30.787Z,0.38
2023-01-23T05:04:58.067Z,0.39
2023-01-23T05:07:26.045Z,0.39
2023-01-23T05:10:08.682Z,0.40
2023-01-23T05:12:36.410Z,0.40
2023-01-23T05:15:04.739Z,0.41
2023-01-23T05:17:35.078Z,0.41
2023-01-23T05:20:03.687Z,0.40
2023-01-23T05:22:31.144Z,0.42
2023-01-23T05:24:59.368Z,0.41
2023-01-23T05:27:29.496Z,0.42
2023-01-23T05:29:56.563Z,0.42
2023-01-23T05:32:26.160Z,0.42
2023-01-23T05:35:16.634Z,0.43
2023-01-23T05:37:47.763Z,0.44
2023-01-23T05:40:15.194Z,0.43
2023-01-23T05:43:02.444Z,0.42
2023-01-23T05:45:48.380Z,0.42
2023-01-23T05:48:25.379Z,0.43
2023-01-23T05:50:52.458Z,0.44
2023-01-23T05:53:21.071Z,0.44
2023-01-23T05:55:47.974Z,0.43
2023-01-23T05:58:16.174Z,0.42
2023-01-23T06:01:05.371Z,0.43
2023-01-23T06:04:01.294Z,0.41
2023-01-23T06:06:36.190Z,0.40
2023-01-23T06:09:03.527Z,0.37
2023-01-23T06:11:30.553Z,0.36
2023-01-23T06:13:57.480Z,0.33
2023-01-23T06:16:24.411Z,0.31
2023-01-23T06:18:51.910Z,0.28
2023-01-23T06:21:19.266Z,0.25
2023-01-23T06:23:46.877Z,0.22
2023-01-23T06:26:14.759Z,0.18
2023-01-23T06:28:41.779Z,0.15
2023-01-23T06:31:10.227Z,0.12
2023-01-23T06:33:52.916Z,0.08
2023-01-23T06:36:24.282Z,0.04
2023-01-23T06:38:52.425Z,0.00
2023-01-23T06:41:24.425Z,-0.04
2023-01-23T06:43:54.780Z,-0.06
2023-01-23T06:46:24.638Z,-0.10
2023-01-23T06:48:54.018Z,-0.13
2023-01-23T06:51:21.292Z,-0.15
2023-01-23T06:53:49.171Z,-0.19
2023-01-23T06:56:16.532Z,-0.23
2023-01-23T06:58:45.999Z,-0.26
2023-01-23T07:01:22.752Z,-0.29
2023-01-23T07:04:01.926Z,-0.32
2023-01-23T07:06:31.176Z,-0.35
2023-01-23T07:08:58.318Z,-0.37
2023-01-23T07:11:25.769Z,-0.39
2023-01-23T07:13:53.173Z,-0.40
2023-01-23T07:16:20.562Z,-0.41
2023-01-23T07:18:47.563Z,-0.41
2023-01-23T07:21:14.519Z,-0.41
2023-01-23T07:23:41.482Z,-0.43
2023-01-23T07:26:09.514Z,-0.42
2023-01-23T07:28:37.633Z,-0.41
2023-01-23T07:31:05.246Z,-0.40
2023-01-23T07:33:32.672Z,-0.38
2023-01-23T07:35:59.760Z,-0.36
2023-01-23T07:38:26.825Z,-0.33
2023-01-23T07:40:58.692Z,-0.31
2023-01-23T07:43:26.672Z,-0.27
2023-01-23T07:45:53.892Z,-0.25
2023-01-23T07:48:20.795Z,-0.22
2023-01-23T07:50:47.759Z,-0.18
2023-01-23T07:53:14.668Z,-0.15
2023-01-23T07:55:41.617Z,-0.12
2023-01-23T07:58:08.722Z,-0.08
2023-01-23T08:00:35.707Z,-0.06
2023-01-23T08:03:02.621Z,-0.03
2023-01-23T08:05:29.575Z,-0.01
2023-01-23T08:08:12.200Z,0.02
2023-01-23T08:10:39.890Z,0.07
2023-01-23T08:13:06.865Z,0.10
2023-01-23T08:15:33.800Z,0.12
2023-01-23T08:18:01.051Z,0.17
2023-01-23T08:20:28.130Z,0.19
2023-01-23T08:22:56.228Z,0.24
2023-01-23T08:25:23.136Z,0.26
2023-01-23T08:27:50.138Z,0.31
2023-01-23T08:30:17.783Z,0.34
2023-01-23T08:32:45.079Z,0.38
2023-01-23T08:35:12.005Z,0.41
2023-01-23T08:37:40.954Z,0.44
2023-01-23T08:40:08.660Z,0.48
2023-01-23T08:42:35.662Z,0.51
2023-01-23T08:45:02.707Z,0.55
2023-01-23T08:47:30.469Z,0.58
2023-01-23T08:49:57.397Z,0.62
2023-01-23T08:52:24.393Z,0.65
2023-01-23T08:54:51.300Z,0.69
2023-01-23T08:57:18.200Z,0.71
2023-01-23T08:59:45.583Z,0.73
2023-01-23T09:02:13.011Z,0.77
2023-01-23T09:04:40.369Z,0.80
2023-01-23T09:07:07.400Z,0.82
2023-01-23T09:09:34.378Z,0.84
2023-01-23T09:12:01.436Z,0.85
2023-01-23T09:14:28.369Z,0.87
2023-01-23T09:16:55.349Z,0.88
2023-01-23T09:19:22.398Z,0.89
2023-01-23T09:21:49.370Z,0.90
2023-01-23T09:24:16.804Z,0.91
2023-01-23T09:26:43.744Z,0.92
2023-01-23T09:29:10.695Z,0.94
2023-01-23T09:31:38.008Z,0.94
2023-01-23T09:34:04.926Z,0.94
2023-01-23T09:36:42.467Z,0.96
2023-01-23T09:39:10.436Z,0.98
2023-01-23T09:41:39.612Z,0.98
2023-01-23T09:44:22.782Z,1.00
2023-01-23T09:47:35.127Z,1.02
2023-01-23T09:50:33.239Z,1.04
2023-01-23T09:53:12.538Z,1.04
2023-01-23T09:55:45.456Z,1.05
2023-01-23T09:58:39.945Z,1.06
2023-01-23T10:01:13.438Z,1.07
2023-01-23T10:03:41.205Z,1.08
2023-01-23T10:06:24.753Z,1.09
2023-01-23T10:09:19.281Z,1.09
2023-01-23T10:12:15.498Z,1.07
2023-01-23T10:15:15.792Z,1.09
2023-01-23T10:18:10.613Z,1.10
2023-01-23T10:20:56.502Z,1.12
2023-01-23T10:23:32.268Z,1.11
2023-01-23T10:26:02.455Z,1.13
2023-01-23T10:28:40.132Z,1.14
2023-01-23T10:31:57.288Z,1.16
2023-01-23T10:34:34.453Z,1.18
2023-01-23T10:37:46.407Z,1.21
2023-01-23T10:40:41.388Z,1.24
2023-01-23T10:43:20.760Z,1.25
2023-01-23T10:45:49.773Z,1.25
2023-01-23T10:48:36.121Z,1.26
2023-01-23T10:51:04.204Z,1.26
2023-01-23T10:53:31.291Z,1.27
2023-01-23T10:56:02.209Z,1.29
2023-01-23T10:58:38.129Z,1.29
2023-01-23T11:01:18.869Z,1.28
2023-01-23T11:03:46.011Z,1.30
2023-01-23T11:06:20.544Z,1.31
2023-01-23T11:09:04.222Z,1.29
2023-01-23T11:11:32.775Z,1.31
2023-01-23T11:14:16.866Z,1.34
2023-01-23T11:16:44.559Z,1.34
2023-01-23T11:19:21.389Z,1.35
2023-01-23T11:21:55.343Z,1.39
2023-01-23T11:24:37.791Z,1.40
2023-01-23T11:27:15.420Z,1.43
2023-01-23T11:30:09.406Z,1.43
2023-01-23T11:33:01.946Z,1.43
2023-01-23T11:35:44.783Z,1.43
2023-01-23T11:38:17.997Z,1.45
2023-01-23T11:40:48.019Z,1.46
2023-01-23T11:43:17.201Z,1.48
2023-01-23T11:46:06.791Z,1.50
2023-01-23T11:49:18.950Z,1.54
2023-01-23T11:52:20.487Z,1.57
2023-01-23T11:55:11.970Z,1.59
2023-01-23T11:58:06.316Z,1.60
2023-01-23T12:00:44.636Z,1.62
2023-01-23T12:03:26.492Z,1.63
2023-01-23T12:06:36.706Z,1.67
2023-01-23T12:09:18.636Z,1.63
2023-01-23T12:12:16.992Z,1.67
2023-01-23T12:15:08.107Z,1.70
2023-01-23T12:17:52.549Z,1.73
2023-01-23T12:21:08.729Z,1.77
2023-01-23T12:24:00.361Z,1.74
2023-01-23T12:26:31.014Z,1.79
2023-01-23T12:29:26.528Z,1.84
2023-01-23T12:32:27.856Z,1.88
2023-01-23T12:35:06.635Z,1.89
2023-01-23T12:38:09.287Z,1.94
2023-01-23T12:41:11.767Z,1.98
2023-01-23T12:44:04.935Z,2.01
2023-01-23T12:47:00.303Z,2.04
2023-01-23T12:50:01.382Z,2.07
2023-01-23T12:53:03.853Z,2.12
2023-01-23T12:55:38.172Z,2.14
2023-01-23T12:58:09.276Z,2.17
2023-01-23T13:00:46.256Z,2.20
2023-01-23T13:03:49.504Z,2.24
2023-01-23T13:06:32.220Z,2.26
2023-01-23T13:09:18.962Z,2.26
2023-01-23T13:12:21.797Z,2.28
2023-01-23T13:15:14.211Z,2.27
2023-01-23T13:18:00.399Z,2.26
2023-01-23T13:20:49.673Z,2.25
2023-01-23T13:23:26.481Z,2.27
2023-01-23T13:26:16.132Z,2.28
2023-01-23T13:28:57.830Z,2.27
2023-01-23T13:31:47.651Z,2.28
2023-01-23T13:34:17.964Z,2.28
2023-01-23T13:36:50.451Z,2.28
2023-01-23T13:39:17.392Z,2.29
2023-01-23T13:41:47.055Z,2.29
2023-01-23T13:44:40.777Z,2.31
2023-01-23T14:24:49.770Z,2.50
2023-01-23T14:27:30.464Z,2.54
2023-01-23T14:30:09.705Z,2.57
2023-01-23T14:32:38.309Z,2.59
2023-01-23T14:35:31.329Z,2.66
2023-01-23T14:38:02.104Z,2.73
2023-01-23T14:40:37.287Z,2.86
2023-01-23T14:43:09.286Z,2.98
2023-01-23T14:45:37.672Z,3.08
2023-01-23T14:48:07.945Z,3.17
2023-01-23T14:50:35.610Z,3.23
2023-01-23T14:53:12.358Z,3.28
2023-01-23T14:55:45.006Z,3.31
2023-01-23T14:58:23.509Z,3.35
2023-01-23T15:00:53.225Z,3.37
2023-01-23T15:03:40.032Z,3.40
2023-01-23T15:06:20.417Z,3.38
2023-01-23T15:08:48.708Z,3.37
2023-01-23T15:11:17.921Z,3.35
2023-01-23T15:13:54.660Z,3.32
2023-01-23T15:16:25.854Z,3.29
2023-01-23T15:19:18.711Z,3.26
2023-01-23T15:21:45.645Z,3.22
2023-01-23T15:24:12.563Z,3.18
2023-01-23T15:26:42.776Z,3.15
2023-01-23T15:29:09.754Z,3.11
2023-01-23T15:31:45.063Z,3.08
2023-01-23T15:34:15.015Z,3.02
2023-01-23T15:37:24.795Z,2.97
2023-01-23T15:40:00.698Z,2.89
2023-01-23T15:42:33.018Z,2.83
2023-01-23T15:45:01.596Z,2.77
2023-01-23T15:47:32.177Z,2.72
2023-01-23T15:50:01.499Z,2.66
2023-01-23T15:52:49.123Z,2.62
2023-01-23T15:55:16.873Z,2.55
2023-01-23T15:57:43.892Z,2.50
2023-01-23T16:00:26.312Z,2.43
2023-01-23T16:02:57.165Z,2.37
2023-01-23T16:05:33.040Z,2.31
2023-01-23T16:08:02.425Z,2.25
2023-01-23T16:10:35.042Z,2.19
2023-01-23T16:13:02.564Z,2.14
2023-01-23T16:15:35.242Z,2.10
2023-01-23T16:18:04.442Z,2.05
2023-01-23T16:20:44.480Z,1.99
2023-01-23T16:23:18.623Z,1.95
2023-01-23T16:25:46.607Z,1.90
2023-01-23T16:28:22.927Z,1.86
2023-01-23T16:30:51.716Z,1.83
2023-01-23T16:33:20.363Z,1.79
2023-01-23T16:35:49.386Z,1.76
2023-01-23T16:38:24.019Z,1.74
2023-01-23T16:40:53.145Z,1.70
2023-01-23T16:43:21.800Z,1.66
2023-01-23T16:45:49.025Z,1.62
2023-01-23T16:48:26.317Z,1.59
2023-01-23T16:51:08.152Z,1.55
2023-01-23T16:53:41.133Z,1.52
2023-01-23T16:56:17.975Z,1.47
2023-01-23T16:58:44.947Z,1.45
2023-01-23T17:01:20.414Z,1.41
2023-01-23T17:03:58.968Z,1.38
2023-01-23T17:06:26.228Z,1.33
2023-01-23T17:08:53.630Z,1.31
2023-01-23T17:11:26.570Z,1.26
2023-01-23T17:13:59.052Z,1.22
2023-01-23T17:16:28.191Z,1.19
2023-01-23T17:18:59.381Z,1.14
2023-01-23T17:21:34.171Z,1.09
2023-01-23T17:24:01.327Z,1.06
2023-01-23T17:26:28.281Z,1.01
2023-01-23T17:28:55.372Z,0.97
2023-01-23T17:31:25.715Z,0.94
2023-01-23T17:33:53.286Z,0.89
2023-01-23T17:36:20.273Z,0.85
2023-01-23T17:38:47.490Z,0.82
2023-01-23T17:41:16.438Z,0.78
2023-01-23T17:43:44.622Z,0.75
2023-01-23T17:46:31.190Z,0.72
2023-01-23T17:48:58.309Z,0.68
2023-01-23T17:51:26.134Z,0.66
2023-01-23T17:53:53.187Z,0.64
2023-01-23T17:56:20.130Z,0.61
2023-01-23T17:58:47.123Z,0.57
2023-01-23T18:01:25.777Z,0.56
2023-01-23T18:03:53.635Z,0.54
2023-01-23T18:06:20.615Z,0.52
2023-01-23T18:08:47.791Z,0.49
2023-01-23T18:11:23.650Z,0.47
2023-01-23T18:14:22.772Z,0.44
2023-01-23T18:16:50.177Z,0.41
2023-01-23T18:19:23.783Z,0.41
2023-01-23T18:21:54.567Z,0.41
2023-01-23T18:24:31.694Z,0.40
2023-01-23T18:27:00.018Z,0.40
2023-01-23T18:29:54.768Z,0.40
2023-01-23T18:34:10.743Z,0.41
2023-01-23T18:36:49.678Z,0.42
2023-01-23T18:39:44.086Z,0.42
2023-01-23T18:42:35.519Z,0.42
2023-01-23T18:45:20.985Z,0.45
2023-01-23T18:47:53.990Z,0.46
2023-01-23T18:50:25.285Z,0.46
2023-01-23T18:53:34.065Z,0.48
2023-01-23T18:56:27.341Z,0.51
2023-01-23T18:59:25.868Z,0.52
2023-01-23T19:02:12.824Z,0.55
2023-01-23T19:05:10.562Z,0.57
2023-01-23T19:07:38.216Z,0.58
2023-01-23T19:10:07.718Z,0.61
2023-01-23T19:12:46.968Z,0.63
2023-01-23T19:15:30.898Z,0.66
2023-01-23T19:18:42.825Z,0.68
2023-01-23T19:21:24.999Z,0.69
2023-01-23T19:24:10.997Z,0.71
2023-01-23T19:26:40.842Z,0.73
2023-01-23T19:29:26.128Z,0.76
2023-01-23T19:32:07.254Z,0.78
2023-01-23T19:34:34.931Z,0.79
2023-01-23T19:37:02.764Z,0.82
2023-01-23T19:39:30.649Z,0.84
2023-01-23T19:41:59.490Z,0.87
2023-01-23T19:44:28.842Z,0.89
2023-01-23T19:46:55.998Z,0.91
2023-01-23T19:49:23.021Z,0.93
2023-01-23T19:51:49.949Z,0.95
2023-01-23T19:54:17.040Z,0.98
2023-01-23T19:56:44.206Z,1.01
2023-01-23T19:59:11.441Z,1.02
2023-01-23T20:01:41.163Z,1.04
2023-01-23T20:04:13.706Z,1.05
2023-01-23T20:06:40.742Z,1.07
2023-01-23T20:09:14.371Z,1.09
2023-01-23T20:11:42.646Z,1.11
2023-01-23T20:14:09.674Z,1.13
2023-01-23T20:16:40.111Z,1.16
2023-01-23T20:19:07.556Z,1.17
2023-01-23T20:21:34.686Z,1.21
2023-01-23T20:24:01.672Z,1.23
2023-01-23T20:26:28.685Z,1.26
2023-01-23T20:28:55.580Z,1.29
2023-01-23T20:31:22.764Z,1.33
2023-01-23T20:33:50.300Z,1.38
2023-01-23T20:36:17.355Z,1.42
2023-01-23T20:38:44.333Z,1.46
2023-01-23T20:41:14.884Z,1.50
2023-01-23T20:43:44.966Z,1.54
2023-01-23T20:46:14.550Z,1.58
2023-01-23T20:48:44.163Z,1.62
2023-01-23T20:51:13.233Z,1.66
2023-01-23T20:53:40.602Z,1.69
2023-01-23T20:56:09.453Z,1.73
2023-01-23T20:58:59.536Z,1.76
2023-01-23T21:01:30.731Z,1.79
2023-01-23T21:03:57.793Z,1.82
2023-01-23T21:06:24.705Z,1.83
2023-01-23T21:08:51.609Z,1.85
2023-01-23T21:11:20.734Z,1.86
2023-01-23T21:13:51.820Z,1.89
2023-01-23T21:16:20.457Z,1.90
2023-01-23T21:18:48.028Z,1.90
2023-01-23T21:21:18.819Z,1.91
2023-01-23T21:23:48.858Z,1.93
2023-01-23T21:26:19.483Z,1.95
2023-01-23T21:28:48.654Z,1.94
2023-01-23T21:31:20.771Z,1.95
2023-01-23T21:33:48.412Z,1.94
2023-01-23T21:36:23.012Z,1.95
2023-01-23T21:39:02.125Z,1.96
2023-01-23T21:41:29.045Z,1.98
2023-01-23T21:43:56.625Z,1.98
2023-01-23T21:46:23.776Z,1.99
2023-01-23T21:48:52.142Z,2.00
2023-01-23T21:51:25.172Z,2.00
2023-01-23T21:53:52.077Z,2.00
2023-01-23T21:56:22.101Z,2.01
2023-01-23T21:58:50.169Z,2.01
2023-01-23T22:01:35.566Z,2.02
2023-01-23T22:04:18.065Z,2.02
2023-01-23T22:06:45.713Z,2.02
2023-01-23T22:09:18.431Z,2.02
2023-01-23T22:11:47.182Z,2.03
2023-01-23T22:14:15.013Z,2.02
2023-01-23T22:16:50.594Z,2.02
2023-01-23T22:19:24.454Z,2.01
2023-01-23T22:21:55.727Z,1.99
2023-01-23T22:24:22.818Z,1.99
2023-01-23T22:26:49.811Z,2.00
2023-01-23T22:29:16.903Z,2.00
2023-01-23T22:31:44.249Z,1.99
2023-01-23T22:34:11.385Z,1.97
2023-01-23T22:36:38.322Z,1.97
2023-01-23T22:39:05.332Z,1.97
2023-01-23T22:41:32.722Z,1.97
2023-01-23T22:43:59.660Z,1.96
2023-01-23T22:46:27.947Z,1.96
2023-01-23T22:48:54.908Z,1.95
2023-01-23T22:51:25.639Z,1.95
2023-01-23T22:53:53.855Z,1.94
2023-01-23T22:56:22.538Z,1.92
2023-01-23T22:58:52.576Z,1.90
2023-01-23T23:01:22.891Z,1.91
2023-01-23T23:03:50.460Z,1.88
2023-01-23T23:06:18.510Z,1.89
2023-01-23T23:08:47.979Z,1.89
2023-01-23T23:11:24.889Z,1.87
2023-01-23T23:13:52.608Z,1.86
2023-01-23T23:16:23.389Z,1.87
2023-01-23T23:18:54.002Z,1.85
2023-01-23T23:21:25.209Z,1.86
2023-01-23T23:23:57.855Z,1.84
2023-01-23T23:26:26.595Z,1.84
2023-01-23T23:28:55.152Z,1.83
2023-01-23T23:31:22.321Z,1.84
2023-01-23T23:33:49.390Z,1.82
2023-01-23T23:36:16.817Z,1.82
2023-01-23T23:38:44.044Z,1.83
2023-01-23T23:41:16.371Z,1.81
2023-01-23T23:43:44.174Z,1.81
2023-01-23T23:46:12.926Z,1.80
2023-01-23T23:48:39.996Z,1.80
2023-01-23T23:51:11.118Z,1.80
2023-01-23T23:53:38.094Z,1.80
2023-01-23T23:56:06.302Z,1.80
2023-01-23T23:58:36.325Z,1.78
